Time;durP1;ratioP1;P1;durP2;ratioP2;P2;SDS_P1;SDS_P2;PMS_P1;PMS_P2;Temp;Humidity;BMP_temperature;BMP_pressure;BME280_temperature;BME280_humidity;BME280_pressure;Samples;Min_cycle;Max_cycle;Signal;HPM_P1;HPM_P2
2022/11/13 00:01:25;;;;;;;;;;;5.90;99.90;;;;;;5091457;28;19928;-63
2022/11/13 00:03:51;;;;;;;;;;;6.00;99.90;;;;;;5097682;28;19928;-63
2022/11/13 00:06:17;;;;;;;;;;;5.90;99.90;;;;;;5092506;28;19928;-64
2022/11/13 00:08:43;;;;;;;;;;;6.00;99.90;;;;;;5105601;28;19931;-63
2022/11/13 00:11:14;;;;;;;;;;;6.00;99.90;;;;;;5091802;28;20282;-63
2022/11/13 00:13:41;;;;;;;;;;;6.00;99.90;;;;;;5091547;28;19928;-68
2022/11/13 00:16:09;;;;;;;;;;;6.00;99.90;;;;;;5091474;28;19932;-64
2022/11/13 00:18:35;;;;;;;;;;;6.00;99.90;;;;;;5092753;28;19924;-65
2022/11/13 00:21:08;;;;;;;;;;;6.00;99.90;;;;;;5091030;28;19970;-63
2022/11/13 00:23:35;;;;;;;;;;;6.00;99.90;;;;;;5107333;28;19935;-62
2022/11/13 00:26:05;;;;;;;;;;;6.00;99.90;;;;;;5090243;28;20397;-63
2022/11/13 00:28:30;;;;;;;;;;;6.00;99.90;;;;;;5073183;28;20598;-64
2022/11/13 00:30:59;;;;;;;;;;;6.00;99.90;;;;;;5096815;28;19931;-63
2022/11/13 00:33:25;;;;;;;;;;;6.00;99.90;;;;;;5096055;28;20351;-63
2022/11/13 00:35:50;;;;;;;;;;;6.10;99.90;;;;;;5090345;28;20011;-63
2022/11/13 00:38:16;;;;;;;;;;;6.10;99.90;;;;;;5091115;28;20018;-63
2022/11/13 00:40:41;;;;;;;;;;;6.10;99.90;;;;;;5098996;28;19928;-63
2022/11/13 00:43:07;;;;;;;;;;;6.10;99.90;;;;;;5101802;28;20392;-63
2022/11/13 00:45:33;;;;;;;;;;;6.20;99.90;;;;;;5102272;28;19970;-64
2022/11/13 00:47:58;;;;;;;;;;;6.20;99.90;;;;;;5090181;28;19924;-64
2022/11/13 00:50:24;;;;;;;;;;;6.20;99.90;;;;;;5091023;28;20292;-63
2022/11/13 00:52:49;;;;;;;;;;;6.40;99.90;;;;;;5090113;28;19928;-63
2022/11/13 00:55:15;;;;;;;;;;;6.20;99.90;;;;;;5091958;28;19988;-63
2022/11/13 00:57:40;;;;;;;;;;;6.30;99.90;;;;;;5090324;28;20297;-63
2022/11/13 01:00:06;;;;;;;;;;;6.30;99.90;;;;;;5089975;28;19985;-63
2022/11/13 01:02:32;;;;;;;;;;;6.30;99.90;;;;;;5105077;28;19931;-63
2022/11/13 01:04:57;;;;;;;;;;;6.30;99.90;;;;;;5089787;28;19932;-63
2022/11/13 01:07:23;;;;;;;;;;;6.30;99.90;;;;;;5105125;28;20438;-66
2022/11/13 01:09:49;;;;;;;;;;;6.30;99.90;;;;;;5096070;28;20407;-68
2022/11/13 01:12:15;;;;;;;;;;;6.40;99.90;;;;;;5080672;28;20354;-63
2022/11/13 01:14:40;;;;;;;;;;;6.40;99.90;;;;;;5072989;28;19932;-63
2022/11/13 01:17:06;;;;;;;;;;;6.40;99.90;;;;;;5083291;28;19924;-63
2022/11/13 01:19:31;;;;;;;;;;;6.40;99.90;;;;;;5092226;28;20034;-63
2022/11/13 01:21:57;;;;;;;;;;;6.40;99.90;;;;;;5076310;28;19928;-63
2022/11/13 01:24:22;;;;;;;;;;;6.40;99.90;;;;;;5090562;28;19928;-64
2022/11/13 01:26:48;;;;;;;;;;;6.40;99.90;;;;;;5090018;28;19928;-63
2022/11/13 01:29:14;;;;;;;;;;;6.50;99.90;;;;;;5089713;28;19935;-65
2022/11/13 01:31:39;;;;;;;;;;;6.50;99.90;;;;;;5072353;28;20507;-64
2022/11/13 01:34:05;;;;;;;;;;;6.50;99.90;;;;;;5093519;28;19924;-65
2022/11/13 01:36:30;;;;;;;;;;;6.50;99.90;;;;;;5089907;28;19932;-64
2022/11/13 01:38:56;;;;;;;;;;;6.40;99.90;;;;;;5071427;28;19924;-65
2022/11/13 01:41:23;;;;;;;;;;;6.50;99.90;;;;;;5089841;28;19935;-63
2022/11/13 01:43:49;;;;;;;;;;;6.60;99.90;;;;;;5090597;28;19934;-62
2022/11/13 01:46:18;;;;;;;;;;;6.60;99.90;;;;;;5085004;28;20014;-63
2022/11/13 01:48:50;;;;;;;;;;;6.60;99.90;;;;;;5055909;28;19977;-63
2022/11/13 01:51:23;;;;;;;;;;;6.60;99.90;;;;;;5104111;28;20407;-63
2022/11/13 01:53:48;;;;;;;;;;;6.60;99.90;;;;;;5106064;28;20241;-63
2022/11/13 01:56:15;;;;;;;;;;;6.60;99.90;;;;;;5055024;28;19928;-63
2022/11/13 01:58:42;;;;;;;;;;;6.70;99.90;;;;;;5096441;28;20027;-65
2022/11/13 02:01:08;;;;;;;;;;;6.60;99.90;;;;;;5088880;28;20319;-63
2022/11/13 02:03:33;;;;;;;;;;;6.60;99.90;;;;;;5090054;28;19985;-63
2022/11/13 02:05:59;;;;;;;;;;;6.60;99.90;;;;;;5105510;28;19924;-64
2022/11/13 02:08:25;;;;;;;;;;;6.60;99.90;;;;;;5104134;28;19928;-63
2022/11/13 02:10:50;;;;;;;;;;;6.60;99.90;;;;;;5090553;28;20040;-63
2022/11/13 02:13:16;;;;;;;;;;;7.30;99.90;;;;;;5105034;28;19967;-63
2022/11/13 02:15:42;;;;;;;;;;;6.60;99.90;;;;;;5085994;28;19927;-63
2022/11/13 02:18:09;;;;;;;;;;;6.60;99.90;;;;;;5091527;28;20405;-64
2022/11/13 02:20:49;;;;;;;;;;;6.60;99.90;;;;;;5093786;28;20011;-63
2022/11/13 02:23:43;;;;;;;;;;;6.60;99.90;;;;;;5093637;28;19924;-63
2022/11/13 02:26:09;;;;;;;;;;;6.60;99.90;;;;;;5079466;28;19931;-64
2022/11/13 02:28:35;;;;;;;;;;;6.60;99.90;;;;;;5093729;28;19928;-63
2022/11/13 02:31:08;;;;;;;;;;;6.60;99.90;;;;;;5093310;28;19934;-68
2022/11/13 02:33:34;;;;;;;;;;;6.60;99.90;;;;;;5093322;28;19974;-63
2022/11/13 02:36:00;;;;;;;;;;;6.60;99.90;;;;;;5080954;28;19967;-65
2022/11/13 02:38:25;;;;;;;;;;;6.60;99.90;;;;;;5093159;28;19928;-62
2022/11/13 02:40:51;;;;;;;;;;;6.50;99.90;;;;;;5093402;28;20361;-63
2022/11/13 02:43:16;;;;;;;;;;;6.60;99.90;;;;;;5092641;28;19928;-64
2022/11/13 02:45:42;;;;;;;;;;;6.60;99.90;;;;;;5093322;28;19924;-63
2022/11/13 02:48:07;;;;;;;;;;;6.60;99.90;;;;;;5106896;28;19924;-63
2022/11/13 02:50:34;;;;;;;;;;;6.60;99.90;;;;;;5093061;28;19924;-64
2022/11/13 02:52:59;;;;;;;;;;;6.60;99.90;;;;;;5090451;28;20330;-63
2022/11/13 02:55:25;;;;;;;;;;;6.60;99.90;;;;;;5092372;28;19924;-62
2022/11/13 02:57:50;;;;;;;;;;;6.60;99.90;;;;;;5093106;28;19924;-64
2022/11/13 03:00:16;;;;;;;;;;;6.60;99.90;;;;;;5092496;28;19935;-65
2022/11/13 03:02:42;;;;;;;;;;;6.60;99.90;;;;;;5093056;28;19928;-63
2022/11/13 03:05:08;;;;;;;;;;;6.60;99.90;;;;;;5074250;28;20269;-64
2022/11/13 03:07:33;;;;;;;;;;;6.60;99.90;;;;;;5092702;28;20278;-64
2022/11/13 03:09:59;;;;;;;;;;;6.60;99.90;;;;;;5075001;28;19924;-63
2022/11/13 03:12:24;;;;;;;;;;;6.50;99.90;;;;;;5093736;28;20487;-63
2022/11/13 03:14:50;;;;;;;;;;;6.50;99.90;;;;;;5091537;28;19924;-63
2022/11/13 03:17:15;;;;;;;;;;;6.60;99.90;;;;;;5073761;28;19924;-63
2022/11/13 03:19:41;;;;;;;;;;;6.50;99.90;;;;;;5074362;28;19924;-64
2022/11/13 03:22:06;;;;;;;;;;;6.50;99.90;;;;;;5092729;28;19931;-63
2022/11/13 03:24:32;;;;;;;;;;;6.20;99.90;;;;;;5094367;28;19928;-66
2022/11/13 03:26:58;;;;;;;;;;;6.50;99.90;;;;;;5092794;28;19931;-63
2022/11/13 03:29:23;;;;;;;;;;;6.40;99.90;;;;;;5091839;28;20006;-64
2022/11/13 03:31:49;;;;;;;;;;;6.40;99.90;;;;;;5096844;28;19928;-63
2022/11/13 03:34:14;;;;;;;;;;;6.40;99.90;;;;;;5070510;28;19924;-63
2022/11/13 03:36:40;;;;;;;;;;;6.40;99.90;;;;;;5097986;28;19931;-62
2022/11/13 03:39:05;;;;;;;;;;;6.40;99.90;;;;;;5092231;28;19928;-63
2022/11/13 03:41:31;;;;;;;;;;;6.40;99.90;;;;;;5073701;28;20124;-63
2022/11/13 03:43:56;;;;;;;;;;;6.40;99.90;;;;;;5092690;28;19932;-64
2022/11/13 03:46:22;;;;;;;;;;;6.40;99.90;;;;;;5073559;28;20375;-63
2022/11/13 03:48:48;;;;;;;;;;;6.40;99.90;;;;;;5093406;28;20342;-64
2022/11/13 03:51:13;;;;;;;;;;;6.40;99.90;;;;;;5073488;28;19928;-68
2022/11/13 03:53:39;;;;;;;;;;;6.30;99.90;;;;;;5099189;28;20258;-64
2022/11/13 03:56:04;;;;;;;;;;;6.40;99.90;;;;;;5091499;28;19935;-64
2022/11/13 03:58:30;;;;;;;;;;;6.40;99.90;;;;;;5091382;28;19928;-64
2022/11/13 04:00:56;;;;;;;;;;;6.40;99.90;;;;;;5091618;28;19927;-63
2022/11/13 04:03:21;;;;;;;;;;;6.40;99.90;;;;;;5093178;28;20023;-63
2022/11/13 04:05:48;;;;;;;;;;;6.40;99.90;;;;;;5074047;28;19935;-64
2022/11/13 04:08:14;;;;;;;;;;;6.40;99.90;;;;;;5091536;28;20039;-64
2022/11/13 04:10:40;;;;;;;;;;;6.40;99.90;;;;;;5091279;28;19973;-63
2022/11/13 04:13:06;;;;;;;;;;;6.40;99.90;;;;;;5091331;28;19927;-64
2022/11/13 04:15:31;;;;;;;;;;;6.40;99.90;;;;;;5074181;28;19924;-63
2022/11/13 04:17:57;;;;;;;;;;;6.50;99.90;;;;;;5091195;28;19928;-64
2022/11/13 04:20:24;;;;;;;;;;;6.40;99.90;;;;;;5072702;28;20369;-63
2022/11/13 04:22:49;;;;;;;;;;;6.40;99.90;;;;;;5091851;28;19934;-63
2022/11/13 04:25:15;;;;;;;;;;;6.40;99.90;;;;;;5088663;28;20373;-64
2022/11/13 04:27:40;;;;;;;;;;;6.40;99.90;;;;;;5073589;28;19924;-64
2022/11/13 04:30:06;;;;;;;;;;;6.40;99.90;;;;;;5091401;28;19935;-63
2022/11/13 04:32:32;;;;;;;;;;;6.40;99.90;;;;;;5091026;28;19973;-63
2022/11/13 04:34:58;;;;;;;;;;;6.40;99.90;;;;;;5056554;28;19924;-63
2022/11/13 04:37:23;;;;;;;;;;;6.40;99.90;;;;;;5090689;28;19924;-64
2022/11/13 04:39:49;;;;;;;;;;;6.40;99.90;;;;;;5102756;28;19934;-63
2022/11/13 04:44:58;;;;;;;;;;;6.40;99.90;;;;;;5091010;28;19931;-63
2022/11/13 04:47:24;;;;;;;;;;;6.40;99.90;;;;;;5072350;28;19936;-64
2022/11/13 04:49:49;;;;;;;;;;;6.40;99.90;;;;;;5090912;28;19979;-64
2022/11/13 04:52:15;;;;;;;;;;;6.40;99.90;;;;;;5103925;28;19931;-65
2022/11/13 04:54:40;;;;;;;;;;;6.40;99.90;;;;;;5090489;28;19928;-64
2022/11/13 04:57:06;;;;;;;;;;;6.40;99.90;;;;;;5072571;28;19924;-64
2022/11/13 04:59:32;;;;;;;;;;;6.40;99.90;;;;;;5089876;28;19928;-63
2022/11/13 05:01:57;;;;;;;;;;;6.40;99.90;;;;;;5091139;28;19979;-64
2022/11/13 05:04:23;;;;;;;;;;;6.40;99.90;;;;;;5098539;28;20407;-68
2022/11/13 05:06:48;;;;;;;;;;;6.30;99.90;;;;;;5090257;28;20014;-64
2022/11/13 05:09:14;;;;;;;;;;;6.40;99.90;;;;;;5071928;28;19930;-64
2022/11/13 05:11:39;;;;;;;;;;;6.30;99.90;;;;;;5090032;28;19975;-64
2022/11/13 05:14:05;;;;;;;;;;;6.30;99.90;;;;;;5090794;28;19935;-64
2022/11/13 05:16:31;;;;;;;;;;;6.30;99.90;;;;;;5092235;28;19924;-64
2022/11/13 05:18:57;;;;;;;;;;;6.30;99.90;;;;;;5104827;28;19935;-63
2022/11/13 05:21:22;;;;;;;;;;;6.20;99.90;;;;;;5098805;28;20365;-63
2022/11/13 05:23:48;;;;;;;;;;;6.20;99.90;;;;;;5069943;28;19972;-64
2022/11/13 05:26:14;;;;;;;;;;;6.20;99.90;;;;;;5069854;28;20286;-64
2022/11/13 05:28:40;;;;;;;;;;;6.20;99.90;;;;;;5077430;28;19993;-63
2022/11/13 05:31:06;;;;;;;;;;;6.10;99.90;;;;;;5069975;28;19948;-65
2022/11/13 05:33:32;;;;;;;;;;;6.10;99.90;;;;;;5069742;28;19931;-64
2022/11/13 05:36:05;;;;;;;;;;;6.10;99.90;;;;;;5069079;28;20309;-63
2022/11/13 05:38:31;;;;;;;;;;;6.10;99.90;;;;;;5069531;28;20007;-64
2022/11/13 05:41:03;;;;;;;;;;;6.00;99.90;;;;;;5070268;28;20007;-64
2022/11/13 05:43:29;;;;;;;;;;;6.10;99.90;;;;;;5069690;28;19969;-67
2022/11/13 05:46:02;;;;;;;;;;;6.00;99.90;;;;;;5069975;28;20344;-63
2022/11/13 05:48:28;;;;;;;;;;;6.00;99.90;;;;;;5069909;28;20015;-63
2022/11/13 05:50:53;;;;;;;;;;;6.00;99.90;;;;;;5071052;28;20310;-63
2022/11/13 05:53:19;;;;;;;;;;;5.90;99.90;;;;;;5074086;28;20467;-63
2022/11/13 05:55:44;;;;;;;;;;;5.90;99.90;;;;;;5073414;28;19931;-63
2022/11/13 05:58:11;;;;;;;;;;;5.90;99.90;;;;;;5073938;28;19972;-63
2022/11/13 06:00:37;;;;;;;;;;;5.90;99.90;;;;;;5074769;28;20346;-64
2022/11/13 06:03:03;;;;;;;;;;;5.80;99.90;;;;;;5068127;28;20073;-64
2022/11/13 06:05:28;;;;;;;;;;;5.90;99.90;;;;;;5107029;28;19932;-63
2022/11/13 06:07:54;;;;;;;;;;;5.80;99.90;;;;;;5073052;28;20041;-63
2022/11/13 06:10:19;;;;;;;;;;;5.80;99.90;;;;;;5072954;28;19928;-64
2022/11/13 06:12:45;;;;;;;;;;;6.00;99.90;;;;;;5071949;28;19924;-63
2022/11/13 06:15:10;;;;;;;;;;;5.80;99.90;;;;;;5072727;28;19925;-63
2022/11/13 06:17:36;;;;;;;;;;;5.80;99.90;;;;;;5073405;28;20001;-67
2022/11/13 06:20:02;;;;;;;;;;;5.70;99.90;;;;;;5072257;28;19932;-63
2022/11/13 06:22:27;;;;;;;;;;;5.70;99.90;;;;;;5093952;28;20288;-64
2022/11/13 06:24:53;;;;;;;;;;;5.80;99.90;;;;;;5074852;28;19947;-63
2022/11/13 06:27:18;;;;;;;;;;;5.70;99.90;;;;;;5092980;28;19993;-65
2022/11/13 06:29:45;;;;;;;;;;;5.70;99.90;;;;;;5092920;28;20007;-67
2022/11/13 06:32:11;;;;;;;;;;;5.60;99.90;;;;;;5075919;28;20038;-64
2022/11/13 06:34:37;;;;;;;;;;;5.60;99.90;;;;;;5093169;28;20019;-67
2022/11/13 06:37:02;;;;;;;;;;;5.60;99.90;;;;;;5093284;28;20023;-64
2022/11/13 06:39:28;;;;;;;;;;;5.60;99.90;;;;;;5107157;28;20426;-62
2022/11/13 06:41:53;;;;;;;;;;;5.70;99.90;;;;;;5092927;28;19924;-62
2022/11/13 06:44:19;;;;;;;;;;;5.50;99.90;;;;;;5091994;28;19946;-64
2022/11/13 06:46:44;;;;;;;;;;;5.50;99.90;;;;;;5060871;28;20269;-62
2022/11/13 06:49:10;;;;;;;;;;;5.50;99.90;;;;;;5093348;28;19928;-66
2022/11/13 06:51:35;;;;;;;;;;;5.50;99.90;;;;;;5098986;28;19974;-62
2022/11/13 06:54:01;;;;;;;;;;;5.50;99.90;;;;;;5074563;28;19932;-63
2022/11/13 06:56:27;;;;;;;;;;;5.40;99.90;;;;;;5074399;28;20285;-62
2022/11/13 06:58:53;;;;;;;;;;;5.40;99.90;;;;;;5073418;28;19931;-63
2022/11/13 07:01:19;;;;;;;;;;;5.40;99.90;;;;;;5074829;28;19935;-63
2022/11/13 07:03:45;;;;;;;;;;;5.40;99.90;;;;;;5091595;28;19951;-66
2022/11/13 07:06:15;;;;;;;;;;;5.40;99.90;;;;;;5092283;28;19924;-66
2022/11/13 07:08:41;;;;;;;;;;;5.40;99.90;;;;;;5074487;28;19928;-63
2022/11/13 07:11:08;;;;;;;;;;;5.30;99.90;;;;;;5092238;28;19924;-65
2022/11/13 07:13:35;;;;;;;;;;;5.30;99.90;;;;;;5069747;28;19932;-64
2022/11/13 07:16:02;;;;;;;;;;;5.30;99.90;;;;;;5091219;28;19954;-63
2022/11/13 07:18:28;;;;;;;;;;;5.30;99.90;;;;;;5091139;28;19935;-63
2022/11/13 07:20:53;;;;;;;;;;;5.70;99.90;;;;;;5088569;28;20014;-64
2022/11/13 07:23:19;;;;;;;;;;;5.30;99.90;;;;;;5074110;28;20013;-64
2022/11/13 07:25:44;;;;;;;;;;;5.40;99.90;;;;;;5074125;28;20448;-67
2022/11/13 07:28:10;;;;;;;;;;;5.40;99.90;;;;;;5091892;28;20045;-63
2022/11/13 07:30:35;;;;;;;;;;;5.40;99.90;;;;;;5074152;28;20025;-63
2022/11/13 07:33:02;;;;;;;;;;;5.40;99.90;;;;;;5091531;28;19938;-63
2022/11/13 07:35:27;;;;;;;;;;;5.50;99.90;;;;;;5074484;28;20264;-64
2022/11/13 07:37:57;;;;;;;;;;;5.50;99.90;;;;;;5073222;28;19924;-63
2022/11/13 07:40:22;;;;;;;;;;;5.50;99.90;;;;;;5090782;28;19928;-63
2022/11/13 07:42:55;;;;;;;;;;;5.60;99.90;;;;;;5091870;28;19932;-67
2022/11/13 07:45:20;;;;;;;;;;;5.60;99.90;;;;;;5071822;28;19931;-63
2022/11/13 07:47:46;;;;;;;;;;;5.60;99.90;;;;;;5074017;28;19928;-63
2022/11/13 07:50:12;;;;;;;;;;;5.60;99.90;;;;;;5091323;28;19967;-63
2022/11/13 07:52:37;;;;;;;;;;;5.70;99.90;;;;;;5073930;28;19981;-63
2022/11/13 07:55:03;;;;;;;;;;;5.70;99.90;;;;;;5091152;28;19953;-63
2022/11/13 07:57:28;;;;;;;;;;;5.70;99.90;;;;;;5092585;28;20001;-64
2022/11/13 07:59:54;;;;;;;;;;;5.70;99.90;;;;;;5090812;28;19963;-63
2022/11/13 08:02:19;;;;;;;;;;;5.70;99.90;;;;;;5091740;28;19967;-63
2022/11/13 08:04:45;;;;;;;;;;;5.90;99.90;;;;;;5091351;28;19942;-64
2022/11/13 08:07:11;;;;;;;;;;;5.80;99.90;;;;;;5090660;28;19964;-63
2022/11/13 08:09:37;;;;;;;;;;;5.90;99.90;;;;;;5091615;28;20249;-63
2022/11/13 08:12:02;;;;;;;;;;;5.90;99.90;;;;;;5091092;28;19924;-63
2022/11/13 08:14:28;;;;;;;;;;;6.00;99.90;;;;;;5091082;28;19930;-64
2022/11/13 08:16:54;;;;;;;;;;;6.00;99.90;;;;;;5074563;28;19924;-65
2022/11/13 08:19:19;;;;;;;;;;;6.00;99.90;;;;;;5073180;28;20277;-64
2022/11/13 08:21:45;;;;;;;;;;;6.20;99.90;;;;;;5089676;28;19928;-64
2022/11/13 08:24:10;;;;;;;;;;;6.10;99.90;;;;;;5089327;28;19971;-65
2022/11/13 08:26:36;;;;;;;;;;;6.20;99.90;;;;;;5090794;28;20019;-65
2022/11/13 08:29:02;;;;;;;;;;;6.30;99.90;;;;;;5094039;28;19928;-65
2022/11/13 08:31:28;;;;;;;;;;;6.30;99.90;;;;;;5089340;28;19924;-66
2022/11/13 08:33:53;;;;;;;;;;;6.30;99.90;;;;;;5056423;28;20392;-65
2022/11/13 08:36:19;;;;;;;;;;;6.40;99.90;;;;;;5084137;28;19928;-65
2022/11/13 08:38:46;;;;;;;;;;;6.50;99.90;;;;;;5056569;28;19979;-65
2022/11/13 08:41:11;;;;;;;;;;;6.50;99.90;;;;;;5090617;28;19928;-66
2022/11/13 08:43:37;;;;;;;;;;;6.50;99.90;;;;;;5072487;28;19932;-64
2022/11/13 08:46:03;;;;;;;;;;;6.50;99.90;;;;;;5071494;28;20411;-66
2022/11/13 08:48:28;;;;;;;;;;;6.60;99.90;;;;;;5090597;28;19924;-65
2022/11/13 08:50:54;;;;;;;;;;;6.60;99.90;;;;;;5088577;28;20371;-66
2022/11/13 08:53:20;;;;;;;;;;;6.70;99.90;;;;;;5071710;28;20007;-65
2022/11/13 08:55:46;;;;;;;;;;;6.70;99.90;;;;;;5089837;28;19935;-65
2022/11/13 08:58:12;;;;;;;;;;;6.80;99.90;;;;;;5070247;28;19928;-65
2022/11/13 09:00:37;;;;;;;;;;;6.80;99.90;;;;;;5092089;28;19963;-68
2022/11/13 09:03:03;;;;;;;;;;;6.90;99.90;;;;;;5068107;28;19944;-64
2022/11/13 09:05:29;;;;;;;;;;;7.00;99.90;;;;;;5102667;28;19924;-65
2022/11/13 09:07:55;;;;;;;;;;;7.00;99.90;;;;;;5089852;28;20581;-65
2022/11/13 09:10:21;;;;;;;;;;;7.10;99.90;;;;;;5083854;28;19924;-65
2022/11/13 09:12:46;;;;;;;;;;;7.10;99.90;;;;;;5090550;28;20293;-65
2022/11/13 09:15:12;;;;;;;;;;;7.10;99.90;;;;;;5072136;28;20296;-65
2022/11/13 09:17:38;;;;;;;;;;;7.20;99.90;;;;;;5106476;28;19978;-64
2022/11/13 09:20:06;;;;;;;;;;;7.30;99.90;;;;;;5090803;28;20297;-66
2022/11/13 09:22:31;;;;;;;;;;;7.30;99.90;;;;;;5090113;28;19924;-64
2022/11/13 09:24:57;;;;;;;;;;;7.40;99.90;;;;;;5090659;28;19932;-64
2022/11/13 09:27:23;;;;;;;;;;;7.50;99.90;;;;;;5089400;28;19931;-65
2022/11/13 09:29:48;;;;;;;;;;;7.50;99.90;;;;;;5090236;28;19924;-63
2022/11/13 09:32:14;;;;;;;;;;;7.60;99.90;;;;;;5088655;28;19924;-65
2022/11/13 09:34:40;;;;;;;;;;;7.60;99.90;;;;;;5055140;28;19924;-67
2022/11/13 09:37:05;;;;;;;;;;;7.70;99.90;;;;;;5090095;28;20408;-68
2022/11/13 09:39:31;;;;;;;;;;;7.80;99.90;;;;;;5089920;28;19989;-64
2022/11/13 09:41:57;;;;;;;;;;;7.90;99.90;;;;;;5076475;28;19935;-65
2022/11/13 09:44:41;;;;;;;;;;;7.90;99.90;;;;;;5071213;28;20231;-65
2022/11/13 09:47:21;;;;;;;;;;;8.00;99.90;;;;;;5089616;28;20302;-65
2022/11/13 09:49:52;;;;;;;;;;;8.10;99.90;;;;;;5088654;28;19935;-64
2022/11/13 09:52:20;;;;;;;;;;;8.20;99.90;;;;;;5092168;28;20015;-65
2022/11/13 09:54:46;;;;;;;;;;;8.30;99.90;;;;;;5090124;28;19930;-65
2022/11/13 09:57:14;;;;;;;;;;;8.40;99.90;;;;;;5089662;28;19924;-65
2022/11/13 09:59:46;;;;;;;;;;;8.40;99.90;;;;;;5089185;28;19930;-64
2022/11/13 10:02:24;;;;;;;;;;;8.50;99.90;;;;;;5088697;28;19924;-64
2022/11/13 10:04:50;;;;;;;;;;;8.50;99.90;;;;;;5090591;28;20002;-65
2022/11/13 10:07:18;;;;;;;;;;;8.60;99.90;;;;;;5089500;28;20007;-66
2022/11/13 10:09:53;;;;;;;;;;;8.70;99.90;;;;;;5071607;28;19990;-66
2022/11/13 10:12:19;;;;;;;;;;;8.70;99.90;;;;;;5090668;28;19924;-65
2022/11/13 10:14:47;;;;;;;;;;;8.80;99.90;;;;;;5071340;28;19928;-67
2022/11/13 10:17:18;;;;;;;;;;;8.90;99.90;;;;;;5071581;28;19955;-65
2022/11/13 10:19:58;;;;;;;;;;;9.00;99.90;;;;;;5089605;28;19924;-66
2022/11/13 10:22:27;;;;;;;;;;;9.00;99.90;;;;;;5103533;28;19924;-66
2022/11/13 10:24:56;;;;;;;;;;;9.10;99.90;;;;;;5089172;28;19997;-66
2022/11/13 10:27:22;;;;;;;;;;;9.10;99.90;;;;;;5086465;28;20011;-67
2022/11/13 10:29:47;;;;;;;;;;;9.20;99.90;;;;;;5089288;28;20018;-67
2022/11/13 10:32:20;;;;;;;;;;;9.20;99.90;;;;;;5070928;28;19924;-69
2022/11/13 10:34:49;;;;;;;;;;;9.20;99.90;;;;;;5086500;28;19932;-65
2022/11/13 10:37:17;;;;;;;;;;;9.40;99.90;;;;;;5088739;28;19970;-70
2022/11/13 10:39:43;;;;;;;;;;;9.40;99.90;;;;;;5073745;28;20338;-65
2022/11/13 10:42:41;;;;;;;;;;;9.50;99.90;;;;;;5092869;28;20327;-65
2022/11/13 10:45:20;;;;;;;;;;;9.50;99.90;;;;;;5053957;28;20381;-66
2022/11/13 10:47:46;;;;;;;;;;;9.60;99.90;;;;;;5066099;28;20468;-65
2022/11/13 10:50:20;;;;;;;;;;;9.60;99.90;;;;;;5092136;28;20376;-65
2022/11/13 10:52:47;;;;;;;;;;;9.60;99.90;;;;;;5092184;28;20019;-66
2022/11/13 10:55:31;;;;;;;;;;;9.70;99.90;;;;;;5092689;28;19928;-65
2022/11/13 10:57:57;;;;;;;;;;;9.80;99.90;;;;;;5092418;28;19928;-64
2022/11/13 11:00:28;;;;;;;;;;;9.80;99.90;;;;;;5073786;28;19924;-65
2022/11/13 11:02:54;;;;;;;;;;;9.80;99.90;;;;;;5074836;28;19924;-64
2022/11/13 11:05:21;;;;;;;;;;;9.90;99.90;;;;;;5097896;28;19931;-65
2022/11/13 11:07:47;;;;;;;;;;;9.90;99.90;;;;;;5108890;28;19932;-67
2022/11/13 11:10:21;;;;;;;;;;;9.90;99.90;;;;;;5092584;28;19946;-65
2022/11/13 11:12:54;;;;;;;;;;;10.00;99.90;;;;;;5088469;28;19985;-66
2022/11/13 11:15:25;;;;;;;;;;;10.00;99.90;;;;;;5092282;28;20020;-67
2022/11/13 11:17:52;;;;;;;;;;;10.00;99.90;;;;;;5093899;28;19970;-65
2022/11/13 11:20:32;;;;;;;;;;;10.10;99.90;;;;;;5078413;28;20301;-70
2022/11/13 11:23:01;;;;;;;;;;;10.00;99.90;;;;;;5057027;28;20016;-69
2022/11/13 11:25:34;;;;;;;;;;;10.10;99.90;;;;;;5092734;28;19935;-66
2022/11/13 11:28:02;;;;;;;;;;;10.10;99.90;;;;;;5108477;28;19926;-66
2022/11/13 11:30:34;;;;;;;;;;;10.10;99.90;;;;;;5084624;28;19935;-67
2022/11/13 11:33:12;;;;;;;;;;;10.10;99.90;;;;;;5073968;28;19955;-66
2022/11/13 11:35:40;;;;;;;;;;;10.20;99.90;;;;;;5074360;28;20355;-66
2022/11/13 11:38:10;;;;;;;;;;;10.20;99.90;;;;;;5092649;28;20355;-66
2022/11/13 11:40:44;;;;;;;;;;;10.20;99.90;;;;;;5091758;28;20029;-67
2022/11/13 11:43:12;;;;;;;;;;;10.30;99.90;;;;;;5074851;28;20335;-66
2022/11/13 11:45:39;;;;;;;;;;;10.30;99.90;;;;;;5091771;28;20456;-67
2022/11/13 11:48:10;;;;;;;;;;;10.30;99.90;;;;;;5092208;28;19978;-66
2022/11/13 11:50:46;;;;;;;;;;;10.40;99.90;;;;;;5088944;28;19961;-66
2022/11/13 11:53:18;;;;;;;;;;;10.50;99.90;;;;;;5074360;28;19924;-66
2022/11/13 11:55:50;;;;;;;;;;;10.60;99.90;;;;;;5089564;28;20424;-66
2022/11/13 11:58:22;;;;;;;;;;;10.70;99.90;;;;;;5092341;28;19920;-65
2022/11/13 12:00:52;;;;;;;;;;;10.70;99.90;;;;;;5071200;28;19932;-66
2022/11/13 12:03:17;;;;;;;;;;;10.80;99.90;;;;;;5097924;28;19928;-66
2022/11/13 12:05:55;;;;;;;;;;;10.80;99.90;;;;;;5107393;28;19975;-66
2022/11/13 12:08:39;;;;;;;;;;;10.90;99.90;;;;;;5100027;28;20498;-65
2022/11/13 12:11:10;;;;;;;;;;;11.00;99.90;;;;;;5085479;28;19935;-66
2022/11/13 12:13:40;;;;;;;;;;;11.10;99.90;;;;;;5091085;28;19931;-66
2022/11/13 12:16:35;;;;;;;;;;;11.10;99.90;;;;;;5057255;28;19924;-66
2022/11/13 12:19:04;;;;;;;;;;;11.20;99.90;;;;;;4985445;28;20136;-66
2022/11/13 12:21:57;;;;;;;;;;;11.30;99.90;;;;;;5086850;28;19928;-65
2022/11/13 12:24:49;;;;;;;;;;;11.30;99.90;;;;;;5090376;28;19935;-65
2022/11/13 12:27:15;;;;;;;;;;;11.40;99.90;;;;;;5093575;28;19978;-65
2022/11/13 12:29:43;;;;;;;;;;;11.40;99.90;;;;;;5073321;28;19979;-65
2022/11/13 12:32:28;;;;;;;;;;;11.50;99.90;;;;;;5090309;28;19924;-65
2022/11/13 12:34:59;;;;;;;;;;;11.50;99.90;;;;;;5073007;28;20348;-66
2022/11/13 12:37:29;;;;;;;;;;;11.50;99.90;;;;;;5091341;28;20309;-66
2022/11/13 12:39:59;;;;;;;;;;;11.50;99.90;;;;;;5091022;28;19928;-66
2022/11/13 12:42:33;;;;;;;;;;;11.50;99.90;;;;;;5090057;28;20356;-65
2022/11/13 12:45:02;;;;;;;;;;;11.50;99.90;;;;;;5072785;28;19920;-66
2022/11/13 12:47:28;;;;;;;;;;;11.60;99.90;;;;;;5072527;28;20332;-66
2022/11/13 12:49:57;;;;;;;;;;;11.70;99.90;;;;;;5090629;28;19982;-66
2022/11/13 12:52:23;;;;;;;;;;;11.60;99.90;;;;;;5090527;28;19968;-66
2022/11/13 12:54:51;;;;;;;;;;;11.60;99.90;;;;;;5090910;28;19986;-66
2022/11/13 12:57:18;;;;;;;;;;;11.60;99.90;;;;;;5098151;28;19924;-65
2022/11/13 12:59:45;;;;;;;;;;;11.70;99.90;;;;;;5090723;28;20020;-67
2022/11/13 13:02:20;;;;;;;;;;;11.70;99.90;;;;;;5090416;28;19928;-66
2022/11/13 13:04:53;;;;;;;;;;;11.70;99.90;;;;;;5071235;28;20011;-67
2022/11/13 13:07:37;;;;;;;;;;;11.80;99.90;;;;;;5091009;28;19981;-66
2022/11/13 13:10:09;;;;;;;;;;;11.70;99.90;;;;;;5085240;28;19931;-66
2022/11/13 13:12:50;;;;;;;;;;;11.70;99.90;;;;;;5090603;28;19920;-67
2022/11/13 13:15:34;;;;;;;;;;;11.70;99.90;;;;;;5090182;28;19943;-68
2022/11/13 13:18:02;;;;;;;;;;;11.60;99.90;;;;;;5090328;28;20297;-66
2022/11/13 13:20:35;;;;;;;;;;;11.60;99.90;;;;;;5072260;28;20317;-66
2022/11/13 13:23:01;;;;;;;;;;;11.60;99.90;;;;;;5085111;28;19931;-66
2022/11/13 13:25:26;;;;;;;;;;;11.70;99.90;;;;;;5090334;28;19928;-66
2022/11/13 13:27:59;;;;;;;;;;;11.60;99.90;;;;;;5090340;28;19950;-66
2022/11/13 13:30:25;;;;;;;;;;;11.60;99.90;;;;;;5072755;28;19924;-66
2022/11/13 13:32:59;;;;;;;;;;;11.60;99.90;;;;;;5072238;28;19924;-66
2022/11/13 13:35:35;;;;;;;;;;;11.60;99.90;;;;;;5089408;28;20373;-66
2022/11/13 13:38:06;;;;;;;;;;;11.60;99.90;;;;;;5090310;28;20266;-66
2022/11/13 13:40:51;;;;;;;;;;;11.60;99.90;;;;;;5072587;28;19928;-67
2022/11/13 13:43:26;;;;;;;;;;;11.60;99.90;;;;;;5090468;28;20220;-67
2022/11/13 13:46:12;;;;;;;;;;;11.50;99.90;;;;;;5089122;28;19928;-66
2022/11/13 13:48:39;;;;;;;;;;;11.60;99.90;;;;;;5089325;28;19924;-70
2022/11/13 13:51:13;;;;;;;;;;;11.50;99.90;;;;;;5088550;28;19924;-63
2022/11/13 13:53:39;;;;;;;;;;;11.50;99.90;;;;;;5087144;28;19970;-68
2022/11/13 13:56:08;;;;;;;;;;;11.50;99.90;;;;;;5089398;28;19959;-67
2022/11/13 13:58:35;;;;;;;;;;;11.50;99.90;;;;;;5086791;28;20015;-63
2022/11/13 14:01:04;;;;;;;;;;;11.50;99.90;;;;;;5102610;28;19975;-65
2022/11/13 14:03:30;;;;;;;;;;;11.50;99.90;;;;;;5089215;28;19985;-64
2022/11/13 14:06:07;;;;;;;;;;;11.50;99.90;;;;;;5098570;28;20389;-64
2022/11/13 14:08:32;;;;;;;;;;;11.40;99.90;;;;;;5089816;28;19927;-65
2022/11/13 14:11:01;;;;;;;;;;;11.50;99.90;;;;;;5087591;28;20270;-65
2022/11/13 14:13:27;;;;;;;;;;;11.40;99.90;;;;;;5090184;28;20394;-65
2022/11/13 14:16:00;;;;;;;;;;;11.40;99.90;;;;;;5092845;28;20373;-65
2022/11/13 14:18:26;;;;;;;;;;;11.40;99.90;;;;;;5092330;28;19928;-64
2022/11/13 14:20:53;;;;;;;;;;;11.40;99.90;;;;;;5092743;28;20105;-64
2022/11/13 14:23:28;;;;;;;;;;;11.30;99.90;;;;;;5093728;28;19932;-64
2022/11/13 14:25:54;;;;;;;;;;;11.30;99.90;;;;;;5093083;28;19928;-65
2022/11/13 14:28:21;;;;;;;;;;;11.20;99.90;;;;;;5093541;28;19978;-65
2022/11/13 14:31:16;;;;;;;;;;;11.20;99.90;;;;;;5093288;28;19928;-70
2022/11/13 14:33:44;;;;;;;;;;;11.20;99.90;;;;;;5069401;28;19924;-65